Sunburst, Montana
Current Conditions -  °F | °C
As of 10:56 AM on Thursday 27 Nov 2014 (Local Time) from KCTB Reporting Station
Clear Clear  
Wind Chill:   Ceiling: Unl
Heat Index:   Visibility: 10mi
Dew Point:   Wind: 36mph
Humidity: 63%   Direction: 260°W
Pressure: 29.7"   Gusts: 45mph
Location:  48.88°N, 111.91°W
Report Text: KCTB 271756Z AUTO 26031G39KT 10SM CLR 08/02 A2970 RMK AO2 PK WND 25043/1709 SLP074 I6009 T00830017 10083 21050 55003 $
Loading
Personal Weather Stations






























Interactive Weather Map New forecast layout! Learn more

10-Day Weather Forecast

Advertisements
Track Severe Weather on mobile